Forest City, California
Current Conditions -  °F | °C
As of 4:04 PM on Saturday 22 Nov 2014 (Local Time) from KBLU Reporting Station
Moderate Fog Moderate Fog  
Wind Chill: 35°   Ceiling: 200
Heat Index: 41°   Visibility: 0.25mi
Dew Point: 39°   Wind: 10mph
Humidity: 93%   Direction: 280°W
Pressure: 30.16"   Gusts: 17mph
Location:  39.5164°N, 120.718°W
Report Text: KBLU 230004Z AUTO 28009G15KT 1/4SM FG BKN002 OVC013 05/04 A3016 RMK AO2 RAE2357 P0001 T00500039
Loading
Personal Weather Stations






























Interactive Weather Map New forecast layout! Learn more

10-Day Weather Forecast

Advertisements
Track Severe Weather on mobile